Time;durP1;ratioP1;P1;durP2;ratioP2;P2;SDS_P1;SDS_P2;PMS_P1;PMS_P2;Temp;Humidity;BMP_temperature;BMP_pressure;BME280_temperature;BME280_humidity;BME280_pressure;Samples;Min_cycle;Max_cycle;Signal;HPM_P1;HPM_P2
2023/12/14 00:01:18;;;;;;;2.53;2.15;;;6.10;99.90;;;;;;5010587;28;20514;-35
2023/12/14 00:03:44;;;;;;;1.95;1.85;;;6.00;99.90;;;;;;5012858;28;20069;-35
2023/12/14 00:06:10;;;;;;;1.98;1.88;;;6.00;99.90;;;;;;5009716;28;20022;-32
2023/12/14 00:08:36;;;;;;;1.70;1.55;;;6.00;99.90;;;;;;5016293;28;20018;-37
2023/12/14 00:11:10;;;;;;;1.63;1.52;;;6.00;99.90;;;;;;5014814;28;20038;-34
2023/12/14 00:13:35;;;;;;;2.13;1.90;;;6.00;99.90;;;;;;5015051;28;20099;-32
2023/12/14 00:16:01;;;;;;;1.90;1.70;;;5.90;99.90;;;;;;5009416;28;20041;-33
2023/12/14 00:18:27;;;;;;;1.95;1.67;;;5.90;99.90;;;;;;5013761;28;20084;-31
2023/12/14 00:20:53;;;;;;;1.83;1.73;;;5.90;99.90;;;;;;5012554;28;20533;-32
2023/12/14 00:23:19;;;;;;;2.67;1.38;;;5.90;99.90;;;;;;5015211;28;20033;-31
2023/12/14 00:25:45;;;;;;;1.33;1.30;;;5.90;99.90;;;;;;5016736;28;20040;-36
2023/12/14 00:28:11;;;;;;;1.75;1.48;;;5.90;99.90;;;;;;5009834;28;20018;-32
2023/12/14 00:30:37;;;;;;;1.20;1.10;;;5.90;99.90;;;;;;5014932;28;20026;-32
2023/12/14 00:33:04;;;;;;;1.02;1.02;;;5.90;99.90;;;;;;5013525;28;20026;-30
2023/12/14 00:35:29;;;;;;;1.25;1.23;;;5.90;99.90;;;;;;5015777;28;20537;-39
2023/12/14 00:37:55;;;;;;;1.10;1.10;;;5.90;99.90;;;;;;5016641;28;20096;-41
2023/12/14 00:40:21;;;;;;;1.70;1.20;;;5.90;99.90;;;;;;5012770;28;20716;-41
2023/12/14 00:42:46;;;;;;;1.10;1.10;;;5.90;99.90;;;;;;5010253;28;20032;-40
2023/12/14 00:45:12;;;;;;;1.13;1.02;;;5.90;99.90;;;;;;5017752;28;20036;-40
2023/12/14 00:47:37;;;;;;;1.30;1.20;;;5.80;99.90;;;;;;5012270;28;20475;-39
2023/12/14 00:50:04;;;;;;;1.40;1.30;;;5.80;99.90;;;;;;5007867;28;20033;-40
2023/12/14 00:52:30;;;;;;;1.50;1.40;;;5.80;99.90;;;;;;5010837;28;20026;-38
2023/12/14 00:54:55;;;;;;;1.40;1.30;;;5.80;99.90;;;;;;5012824;28;20032;-39
2023/12/14 00:57:21;;;;;;;1.35;1.25;;;5.70;99.90;;;;;;5015892;28;20440;-38
2023/12/14 00:59:46;;;;;;;1.55;1.45;;;5.70;99.90;;;;;;5016380;28;20166;-35
2023/12/14 01:02:12;;;;;;;1.77;1.67;;;5.70;99.90;;;;;;5013283;28;20419;-43
2023/12/14 01:04:38;;;;;;;1.65;1.55;;;5.70;99.90;;;;;;5011386;28;20353;-36
2023/12/14 01:07:04;;;;;;;1.73;1.60;;;5.70;99.90;;;;;;5011722;28;20120;-38
2023/12/14 01:09:30;;;;;;;1.50;1.40;;;5.70;99.90;;;;;;5017271;28;20014;-39
2023/12/14 01:11:55;;;;;;;1.83;1.73;;;5.80;99.90;;;;;;5010720;28;20024;-38
2023/12/14 01:14:21;;;;;;;2.03;1.80;;;5.70;99.90;;;;;;5013089;28;20168;-40
2023/12/14 01:16:47;;;;;;;1.92;1.60;;;5.80;99.90;;;;;;5008948;28;20108;-39
2023/12/14 01:19:12;;;;;;;1.60;1.50;;;5.80;99.90;;;;;;5011705;28;20023;-31
2023/12/14 01:21:38;;;;;;;1.52;1.42;;;5.70;99.90;;;;;;5014519;28;20030;-37
2023/12/14 01:24:04;;;;;;;1.25;1.08;;;5.70;99.90;;;;;;5014613;28;20036;-40
2023/12/14 01:26:29;;;;;;;1.67;1.58;;;5.70;99.90;;;;;;5010518;28;20026;-40
2023/12/14 01:28:55;;;;;;;1.45;1.35;;;5.70;99.90;;;;;;5010535;28;20038;-40
2023/12/14 01:31:24;;;;;;;1.80;1.70;;;5.60;99.90;;;;;;5010782;28;20432;-40
2023/12/14 01:33:50;;;;;;;2.17;1.85;;;5.60;99.90;;;;;;5013549;28;20022;-38
2023/12/14 01:36:23;;;;;;;2.17;1.98;;;5.60;99.90;;;;;;5015283;28;20033;-41
2023/12/14 01:38:49;;;;;;;1.85;1.75;;;5.60;99.90;;;;;;5012686;28;20033;-35
2023/12/14 01:41:14;;;;;;;2.10;1.92;;;5.60;99.90;;;;;;5009610;28;20048;-41
2023/12/14 01:43:40;;;;;;;1.70;1.60;;;5.60;99.90;;;;;;5016625;28;20112;-39
2023/12/14 01:46:06;;;;;;;1.60;1.50;;;5.60;99.90;;;;;;5014109;28;20061;-38
2023/12/14 01:48:31;;;;;;;3.25;1.77;;;5.60;99.90;;;;;;5014918;28;20056;-38
2023/12/14 01:50:57;;;;;;;1.80;1.70;;;5.60;99.90;;;;;;5012114;28;20022;-40
2023/12/14 01:53:22;;;;;;;2.22;1.48;;;5.60;99.90;;;;;;5011893;28;20644;-39
2023/12/14 01:55:48;;;;;;;2.00;1.67;;;5.60;99.90;;;;;;5013241;28;20121;-35
2023/12/14 01:58:14;;;;;;;1.73;1.63;;;5.60;99.90;;;;;;5016886;28;20643;-39
2023/12/14 02:00:50;;;;;;;1.70;1.60;;;5.60;99.90;;;;;;5011915;28;20046;-39
2023/12/14 02:03:16;;;;;;;2.25;2.05;;;5.60;99.90;;;;;;5011786;28;20034;-39
2023/12/14 02:05:42;;;;;;;1.85;1.75;;;5.60;99.90;;;;;;5012831;28;20100;-39
2023/12/14 02:08:08;;;;;;;1.90;1.80;;;5.60;99.90;;;;;;5011271;28;20037;-36
2023/12/14 02:10:34;;;;;;;2.55;1.90;;;5.60;99.90;;;;;;5015613;28;20109;-37
2023/12/14 02:13:04;;;;;;;2.00;1.90;;;5.60;99.90;;;;;;5013593;28;20137;-37
2023/12/14 02:15:30;;;;;;;1.90;1.80;;;5.60;99.90;;;;;;5009925;28;20397;-38
2023/12/14 02:21:15;;;;;;;1.55;1.45;;;5.50;99.90;;;;;;4329769;22;20467;-81
2023/12/14 02:23:47;;;;;;;1.73;1.48;;;5.50;99.90;;;;;;4995461;28;20057;-74
2023/12/14 02:26:13;;;;;;;1.30;1.25;;;5.50;99.90;;;;;;5003357;28;20038;-80
2023/12/14 02:28:42;;;;;;;1.33;1.33;;;5.50;99.90;;;;;;4999944;28;20589;-74
2023/12/14 02:31:10;;;;;;;1.55;1.45;;;5.50;99.90;;;;;;4995891;28;20050;-74
2023/12/14 02:33:36;;;;;;;1.70;1.60;;;5.50;99.90;;;;;;4999983;28;20038;-74
2023/12/14 02:36:03;;;;;;;1.70;1.60;;;5.50;99.90;;;;;;5004360;28;20458;-74
2023/12/14 02:38:29;;;;;;;1.50;1.40;;;5.50;99.90;;;;;;5000586;28;20089;-74
2023/12/14 02:40:55;;;;;;;3.65;1.60;;;5.40;99.90;;;;;;4997998;28;20026;-74
2023/12/14 02:43:23;;;;;;;1.60;1.38;;;5.40;99.90;;;;;;4996738;28;20022;-74
2023/12/14 02:45:49;;;;;;;1.60;1.50;;;5.40;99.90;;;;;;4997751;28;20141;-74
2023/12/14 02:48:16;;;;;;;1.70;1.60;;;5.50;99.90;;;;;;5005309;28;20041;-74
2023/12/14 02:50:47;;;;;;;1.55;1.45;;;5.50;99.90;;;;;;5001904;28;20037;-74
2023/12/14 02:53:13;;;;;;;1.48;1.38;;;5.40;99.90;;;;;;5002045;28;20030;-74
2023/12/14 02:55:42;;;;;;;1.95;1.75;;;5.50;99.90;;;;;;4994694;28;20062;-75
2023/12/14 02:58:08;;;;;;;;;;;5.50;99.90;;;;;;4999375;28;20399;-74
2023/12/14 03:00:33;;;;;;;2.35;2.00;;;5.40;99.90;;;;;;5004822;28;19917;-74
2023/12/14 03:06:21;;;;;;;1.92;1.73;;;5.40;99.90;;;;;;5001070;28;20048;-74
2023/12/14 03:08:48;;;;;;;2.55;2.35;;;5.40;99.90;;;;;;5005984;28;20113;-74
2023/12/14 03:11:23;;;;;;;2.33;2.05;;;5.40;99.90;;;;;;5006535;28;20037;-74
2023/12/14 03:13:49;;;;;;;2.33;1.98;;;5.30;99.90;;;;;;4998616;28;20030;-74
2023/12/14 03:16:16;;;;;;;2.10;1.83;;;5.40;99.90;;;;;;5021824;28;20037;-74
2023/12/14 03:18:56;;;;;;;2.00;1.90;;;5.40;99.90;;;;;;5000294;28;20117;-74
2023/12/14 03:21:22;;;;;;;1.52;1.42;;;5.40;99.90;;;;;;4998586;28;20042;-74
2023/12/14 03:23:48;;;;;;;4.57;1.70;;;5.30;99.90;;;;;;5016683;28;20451;-74
2023/12/14 03:26:13;;;;;;;1.95;1.85;;;5.40;99.90;;;;;;5006682;28;20041;-74
2023/12/14 03:28:39;;;;;;;2.08;1.98;;;5.40;99.90;;;;;;5002422;28;20875;-75
2023/12/14 03:31:05;;;;;;;3.50;2.15;;;5.40;99.90;;;;;;4995232;28;20046;-75
2023/12/14 03:33:36;;;;;;;2.00;1.73;;;5.40;99.90;;;;;;4996484;28;20028;-75
2023/12/14 03:36:02;;;;;;;2.65;1.88;;;5.40;99.90;;;;;;5000016;28;20054;-75
2023/12/14 03:38:28;;;;;;;2.75;2.08;;;5.40;99.90;;;;;;5002654;28;20017;-75
2023/12/14 03:40:54;;;;;;;7.03;2.03;;;5.40;99.90;;;;;;4999618;28;20058;-74
2023/12/14 03:43:22;;;;;;;1.60;1.50;;;5.40;99.90;;;;;;5000720;28;20533;-75
2023/12/14 03:45:48;;;;;;;1.98;1.88;;;5.40;99.90;;;;;;5007281;28;20049;-73
2023/12/14 03:48:14;;;;;;;2.63;2.13;;;5.40;99.90;;;;;;5005698;28;20034;-73
2023/12/14 03:50:39;;;;;;;2.22;1.52;;;5.40;99.90;;;;;;5002453;28;20030;-74
2023/12/14 03:53:05;;;;;;;1.80;1.70;;;5.40;99.90;;;;;;5002150;28;20031;-73
2023/12/14 03:55:30;;;;;;;2.10;1.90;;;5.40;99.90;;;;;;5006596;28;20023;-74
2023/12/14 03:57:56;;;;;;;2.00;1.50;;;5.40;99.90;;;;;;5002811;28;20068;-74
2023/12/14 04:00:22;;;;;;;2.33;1.80;;;5.40;99.90;;;;;;5008477;28;20521;-74
2023/12/14 04:02:48;;;;;;;4.05;2.03;;;5.40;99.90;;;;;;4999415;28;20064;-73
2023/12/14 04:05:14;;;;;;;1.85;1.75;;;5.40;99.90;;;;;;5003708;28;20685;-73
2023/12/14 04:07:43;;;;;;;1.83;1.73;;;5.40;99.90;;;;;;5001307;28;20072;-74
2023/12/14 04:10:13;;;;;;;1.67;1.58;;;5.40;99.90;;;;;;5001942;28;20141;-74
2023/12/14 04:12:39;;;;;;;2.83;1.98;;;5.40;99.90;;;;;;5004205;28;20037;-74
2023/12/14 04:15:07;;;;;;;2.65;2.45;;;5.40;99.90;;;;;;5003066;28;20209;-73
2023/12/14 04:17:33;;;;;;;3.28;2.67;;;5.40;99.90;;;;;;4993713;28;20022;-74
2023/12/14 04:19:59;;;;;;;2.55;2.05;;;5.40;99.90;;;;;;5002237;28;20069;-73
2023/12/14 04:22:27;;;;;;;3.92;2.45;;;5.40;99.90;;;;;;4992151;28;20022;-74
2023/12/14 04:24:53;;;;;;;2.42;2.22;;;5.40;99.90;;;;;;4989570;28;20058;-74
2023/12/14 04:27:19;;;;;;;2.42;2.05;;;5.40;99.90;;;;;;5000186;28;20182;-75
2023/12/14 04:29:44;;;;;;;2.22;1.95;;;5.40;99.90;;;;;;4996939;28;20100;-74
2023/12/14 04:32:11;;;;;;;3.38;2.08;;;5.30;99.90;;;;;;4995272;28;20038;-74
2023/12/14 04:34:40;;;;;;;3.05;1.95;;;5.30;99.90;;;;;;4995394;28;20065;-74
2023/12/14 04:37:06;;;;;;;1.80;1.70;;;5.30;99.90;;;;;;4996777;28;20038;-74
2023/12/14 04:39:33;;;;;;;2.25;2.05;;;5.30;99.90;;;;;;4993592;28;20022;-73
2023/12/14 04:41:58;;;;;;;2.15;1.77;;;5.30;99.90;;;;;;4994228;28;20042;-75
2023/12/14 04:44:24;;;;;;;2.80;2.10;;;5.30;99.90;;;;;;5001128;28;20039;-75
2023/12/14 04:46:50;;;;;;;1.90;1.70;;;5.20;99.90;;;;;;4997443;28;20046;-74
2023/12/14 04:49:16;;;;;;;2.78;2.08;;;5.20;99.90;;;;;;4994311;28;20027;-75
2023/12/14 04:51:42;;;;;;;2.28;1.90;;;5.20;99.90;;;;;;5000129;28;20026;-74
2023/12/14 04:54:08;;;;;;;2.53;2.30;;;5.20;99.90;;;;;;4994283;28;20049;-75
2023/12/14 04:56:37;;;;;;;2.75;2.55;;;5.20;99.90;;;;;;5000329;28;20472;-75
2023/12/14 04:59:03;;;;;;;2.83;2.10;;;5.20;99.90;;;;;;4994112;28;20093;-75
2023/12/14 05:01:29;;;;;;;2.15;1.98;;;5.30;99.90;;;;;;5004051;28;20034;-74
2023/12/14 05:03:55;;;;;;;7.47;6.05;;;5.20;99.90;;;;;;4997203;28;20060;-74
2023/12/14 05:06:21;;;;;;;5.05;3.40;;;5.20;99.90;;;;;;4994357;28;20058;-72
2023/12/14 05:08:47;;;;;;;4.85;3.42;;;5.20;99.90;;;;;;4995593;28;20049;-72
2023/12/14 05:11:13;;;;;;;6.47;3.35;;;5.10;99.90;;;;;;4994586;28;20081;-73
2023/12/14 05:13:39;;;;;;;4.75;2.83;;;5.20;99.90;;;;;;4995316;28;20034;-73
2023/12/14 05:16:12;;;;;;;2.95;2.58;;;5.10;99.90;;;;;;4991765;28;20553;-72
2023/12/14 05:18:37;;;;;;;2.47;2.17;;;5.10;99.90;;;;;;4995708;28;20031;-73
2023/12/14 05:21:03;;;;;;;3.38;2.33;;;5.00;99.90;;;;;;5003468;28;20148;-73
2023/12/14 05:23:29;;;;;;;3.42;2.40;;;5.00;99.90;;;;;;4998937;28;20101;-73
2023/12/14 05:25:55;;;;;;;2.30;2.10;;;5.00;99.90;;;;;;4992185;28;20129;-73
2023/12/14 05:28:20;;;;;;;2.75;2.15;;;5.00;99.90;;;;;;5002512;28;20018;-73
2023/12/14 05:30:46;;;;;;;2.33;1.98;;;5.10;99.90;;;;;;4997261;28;20122;-73
2023/12/14 05:33:15;;;;;;;2.40;2.20;;;5.10;99.90;;;;;;5002419;28;20035;-74
2023/12/14 05:35:40;;;;;;;;;;;5.10;99.90;;;;;;4990656;28;20136;-75
2023/12/14 05:38:06;;;;;;;2.70;2.20;;;5.10;99.90;;;;;;4999779;28;20602;-76
2023/12/14 05:40:32;;;;;;;2.83;2.25;;;5.10;99.90;;;;;;4993898;28;20023;-73
2023/12/14 05:42:57;;;;;;;2.97;1.90;;;5.10;99.90;;;;;;4994740;28;20026;-73
2023/12/14 05:45:26;;;;;;;2.15;1.95;;;5.20;99.90;;;;;;4989429;28;20082;-73
2023/12/14 05:47:52;;;;;;;2.63;2.42;;;5.20;99.90;;;;;;4989614;28;20042;-74
2023/12/14 05:50:18;;;;;;;4.50;2.15;;;5.20;99.90;;;;;;4994381;28;20566;-74
2023/12/14 05:52:55;;;;;;;2.42;2.10;;;5.20;99.90;;;;;;4996762;28;20042;-74
2023/12/14 05:55:21;;;;;;;3.28;2.13;;;5.20;99.90;;;;;;4989800;28;20231;-74
2023/12/14 05:58:15;;;;;;;2.70;2.20;;;5.20;99.90;;;;;;4989985;28;20026;-74
2023/12/14 06:00:53;;;;;;;2.08;1.90;;;5.20;99.90;;;;;;4979409;28;20050;-74
2023/12/14 06:03:24;;;;;;;3.72;1.90;;;5.20;99.90;;;;;;4991491;28;20117;-73
2023/12/14 06:06:34;;;;;;;3.00;2.28;;;5.30;99.90;;;;;;4990416;28;20061;-72
2023/12/14 06:09:06;;;;;;;3.28;2.20;;;5.20;99.90;;;;;;4970880;28;20042;-74
2023/12/14 06:11:31;;;;;;;2.17;2.03;;;5.30;99.90;;;;;;4986574;28;20467;-75
2023/12/14 06:14:00;;;;;;;2.08;1.98;;;5.30;99.90;;;;;;4979533;28;20084;-73
2023/12/14 06:16:26;;;;;;;2.72;2.42;;;5.30;99.90;;;;;;4997426;28;20034;-77
2023/12/14 06:19:24;;;;;;;2.63;2.33;;;5.30;99.90;;;;;;5000291;28;20289;-77
2023/12/14 06:22:06;;;;;;;2.30;1.92;;;5.30;99.90;;;;;;4988175;28;20046;-78
2023/12/14 06:24:37;;;;;;;2.33;1.88;;;5.30;99.90;;;;;;4994125;28;20030;-79
2023/12/14 06:27:06;;;;;;;2.45;2.25;;;5.40;99.90;;;;;;5001298;28;20026;-79
2023/12/14 06:29:32;;;;;;;3.45;2.33;;;5.40;99.90;;;;;;4998820;28;20097;-80
2023/12/14 06:31:58;;;;;;;2.75;2.38;;;5.30;99.90;;;;;;5001636;28;20141;-81
2023/12/14 06:34:39;;;;;;;2.67;2.35;;;5.30;99.90;;;;;;4998151;28;20783;-81
2023/12/14 06:37:17;;;;;;;2.20;2.00;;;5.30;99.90;;;;;;4997045;28;20140;-81
2023/12/14 06:39:42;;;;;;;2.90;2.37;;;5.30;99.90;;;;;;4997491;28;20034;-81
2023/12/14 06:42:09;;;;;;;3.10;2.60;;;5.30;99.90;;;;;;5001185;28;20586;-81
2023/12/14 06:44:45;;;;;;;2.55;2.17;;;5.30;99.90;;;;;;5000915;28;20041;-80
2023/12/14 06:47:25;;;;;;;3.67;2.30;;;5.30;99.90;;;;;;5014385;28;20102;-80
2023/12/14 06:49:59;;;;;;;3.08;2.47;;;5.30;99.90;;;;;;4999743;28;20041;-80
2023/12/14 06:52:25;;;;;;;2.40;2.20;;;5.30;99.90;;;;;;5012121;28;20022;-79
2023/12/14 06:54:57;;;;;;;4.60;2.95;;;5.40;99.90;;;;;;4997886;28;20363;-80
2023/12/14 06:57:26;;;;;;;3.10;2.42;;;5.30;99.90;;;;;;5000082;28;20114;-80
2023/12/14 06:59:52;;;;;;;2.95;2.65;;;5.40;99.90;;;;;;4998182;28;20030;-81
2023/12/14 07:02:17;;;;;;;3.53;2.65;;;5.40;99.90;;;;;;5000893;28;20031;-81
2023/12/14 07:04:47;;;;;;;3.47;2.65;;;5.30;99.90;;;;;;4998716;28;20023;-83
2023/12/14 07:07:12;;;;;;;3.67;2.85;;;5.40;99.90;;;;;;5001124;28;20035;-80
2023/12/14 07:09:39;;;;;;;5.50;3.30;;;5.40;99.90;;;;;;4997136;28;20046;-78
2023/12/14 07:12:04;;;;;;;5.05;3.42;;;5.40;99.90;;;;;;4998785;28;20089;-79
2023/12/14 07:14:33;;;;;;;4.20;3.20;;;5.40;99.90;;;;;;4995968;28;20033;-79
2023/12/14 07:17:10;;;;;;;5.55;3.58;;;5.40;99.90;;;;;;4999420;28;20061;-79
2023/12/14 07:19:36;;;;;;;7.82;4.63;;;5.40;99.90;;;;;;4993928;28;20034;-78
2023/12/14 07:22:08;;;;;;;9.68;4.60;;;5.40;99.90;;;;;;5004915;28;20061;-79
2023/12/14 07:24:36;;;;;;;6.78;5.60;;;5.40;99.90;;;;;;5006428;28;20026;-79
2023/12/14 07:27:02;;;;;;;5.65;4.18;;;5.40;99.90;;;;;;5005161;28;20056;-78
2023/12/14 07:29:28;;;;;;;5.60;3.70;;;5.40;99.90;;;;;;5004965;28;20101;-78
2023/12/14 07:31:54;;;;;;;6.45;4.30;;;5.50;99.90;;;;;;5004913;28;20049;-78
2023/12/14 07:34:20;;;;;;;7.15;5.07;;;5.40;99.90;;;;;;5004172;28;20026;-79
2023/12/14 07:37:02;;;;;;;7.03;4.97;;;5.40;99.90;;;;;;4998598;28;20026;-71
2023/12/14 07:40:10;;;;;;;6.10;3.83;;;5.50;99.90;;;;;;4992950;28;20494;-73
2023/12/14 07:42:54;;;;;;;12.18;8.13;;;5.40;99.90;;;;;;4987504;28;20073;-72
2023/12/14 07:45:19;;;;;;;33.15;14.55;;;5.50;99.90;;;;;;4990028;28;20042;-72
2023/12/14 07:47:46;;;;;;;10.30;5.78;;;5.50;99.90;;;;;;5006930;28;20061;-72
2023/12/14 07:50:12;;;;;;;14.02;7.50;;;5.50;99.90;;;;;;4993372;28;20026;-72
2023/12/14 07:52:39;;;;;;;50.25;25.13;;;5.50;99.90;;;;;;4993708;28;20125;-72
2023/12/14 07:55:05;;;;;;;20.70;12.25;;;5.60;99.90;;;;;;4993911;28;20058;-72
2023/12/14 07:57:31;;;;;;;11.27;6.95;;;5.60;99.90;;;;;;4989246;28;20038;-72
2023/12/14 08:00:00;;;;;;;53.17;26.50;;;5.60;99.90;;;;;;4988273;28;20042;-72
2023/12/14 08:02:29;;;;;;;18.42;10.00;;;5.60;99.90;;;;;;5000177;28;20034;-73
2023/12/14 08:04:55;;;;;;;55.28;22.75;;;5.60;99.90;;;;;;4994227;28;20034;-72
2023/12/14 08:07:28;;;;;;;128.50;55.78;;;5.60;99.90;;;;;;4993093;28;20093;-74
2023/12/14 08:09:54;;;;;;;37.97;17.67;;;5.60;99.90;;;;;;4990498;28;20034;-73
2023/12/14 08:12:21;;;;;;;13.63;7.70;;;5.60;99.90;;;;;;4994855;28;20041;-73
2023/12/14 08:14:47;;;;;;;19.42;10.02;;;5.70;99.90;;;;;;4989685;28;20057;-72
2023/12/14 08:17:13;;;;;;;8.20;4.35;;;5.70;99.90;;;;;;4991904;28;20478;-72
2023/12/14 08:19:39;;;;;;;7.78;5.20;;;5.70;99.90;;;;;;4991204;28;20034;-73
2023/12/14 08:22:05;;;;;;;8.68;5.60;;;5.70;99.90;;;;;;4994428;28;20018;-72
2023/12/14 08:24:30;;;;;;;12.15;5.47;;;5.70;99.90;;;;;;4987284;28;20022;-72
2023/12/14 08:26:56;;;;;;;8.48;5.70;;;5.70;99.90;;;;;;4991642;28;20133;-71
2023/12/14 08:29:22;;;;;;;6.18;4.07;;;5.70;99.90;;;;;;4989661;28;20066;-73
2023/12/14 08:31:48;;;;;;;5.50;3.65;;;5.70;99.90;;;;;;4992414;28;20369;-74
2023/12/14 08:34:14;;;;;;;5.47;3.90;;;5.80;99.90;;;;;;4988972;28;20109;-73
2023/12/14 08:36:40;;;;;;;7.18;4.55;;;5.80;99.90;;;;;;4991892;28;20090;-73
2023/12/14 08:39:06;;;;;;;6.90;4.72;;;5.80;99.90;;;;;;5001471;28;20384;-73
2023/12/14 08:41:32;;;;;;;6.93;4.03;;;5.80;99.90;;;;;;4994581;28;20136;-73
2023/12/14 08:43:58;;;;;;;8.27;4.32;;;5.80;99.90;;;;;;4988734;28;20061;-73
2023/12/14 08:46:23;;;;;;;6.03;3.97;;;5.80;99.90;;;;;;4992165;28;20807;-73
2023/12/14 08:48:53;;;;;;;6.47;4.05;;;5.80;99.90;;;;;;4985463;28;20072;-75
2023/12/14 08:51:27;;;;;;;6.75;4.15;;;5.80;99.90;;;;;;4992524;28;20040;-73
2023/12/14 08:53:56;;;;;;;5.28;3.95;;;5.80;99.90;;;;;;4986588;28;20034;-74
2023/12/14 08:56:21;;;;;;;;;;;5.80;99.90;;;;;;4989024;28;20041;-74
2023/12/14 08:58:47;;;;;;;7.13;4.82;;;5.80;99.90;;;;;;4998842;28;19909;-73
2023/12/14 09:01:22;;;;;;;7.55;4.15;;;5.80;99.90;;;;;;4990994;28;20042;-73
2023/12/14 09:03:49;;;;;;;4.88;3.45;;;5.80;99.90;;;;;;4988565;28;20062;-73
2023/12/14 09:06:17;;;;;;;7.63;4.20;;;5.90;99.90;;;;;;4991656;28;20054;-74
2023/12/14 09:08:46;;;;;;;7.38;4.07;;;5.90;99.90;;;;;;4988727;28;20066;-73
2023/12/14 09:11:12;;;;;;;10.82;5.00;;;5.90;99.90;;;;;;4988987;28;20041;-74
2023/12/14 09:13:38;;;;;;;9.10;5.07;;;5.90;99.90;;;;;;4980123;28;20040;-75
2023/12/14 09:16:07;;;;;;;8.43;4.68;;;5.90;99.90;;;;;;4994395;28;20494;-74
2023/12/14 09:18:35;;;;;;;8.65;4.32;;;5.90;99.90;;;;;;4986526;28;20038;-73
2023/12/14 09:21:04;;;;;;;7.50;5.03;;;5.90;99.90;;;;;;4989044;28;20054;-74
2023/12/14 09:23:33;;;;;;;6.78;4.50;;;5.90;99.90;;;;;;4995063;28;20038;-75
2023/12/14 09:26:02;;;;;;;4.82;3.08;;;6.00;99.90;;;;;;4998472;28;20679;-74
2023/12/14 09:28:27;;;;;;;;;;;6.00;99.90;;;;;;4986467;28;20026;-75
2023/12/14 09:30:53;;;;;;;2.65;1.80;;;6.00;99.90;;;;;;4986667;28;20591;-75
2023/12/14 09:33:19;;;;;;;3.25;2.47;;;6.00;99.90;;;;;;5006725;28;20029;-74
2023/12/14 09:35:45;;;;;;;3.47;2.90;;;6.00;99.90;;;;;;5000579;28;20031;-75
2023/12/14 09:38:13;;;;;;;8.25;4.25;;;6.00;99.90;;;;;;4979915;28;20542;-74
2023/12/14 09:40:39;;;;;;;7.05;4.15;;;6.00;99.90;;;;;;4985686;28;20069;-74
2023/12/14 09:43:06;;;;;;;7.50;4.88;;;6.10;99.90;;;;;;4985836;28;20026;-74
2023/12/14 09:45:33;;;;;;;8.27;4.78;;;6.10;99.90;;;;;;4991656;28;20031;-74
2023/12/14 09:48:03;;;;;;;8.65;4.35;;;6.10;99.90;;;;;;4977559;28;20034;-74
2023/12/14 09:50:30;;;;;;;6.75;4.20;;;6.10;99.90;;;;;;4976103;28;20035;-74
2023/12/14 09:52:56;;;;;;;5.68;4.18;;;6.20;99.90;;;;;;4986672;28;20294;-74
2023/12/14 09:55:22;;;;;;;5.53;3.42;;;6.20;99.90;;;;;;4994031;28;20499;-82
2023/12/14 09:57:47;;;;;;;4.60;3.03;;;6.20;99.90;;;;;;5002482;28;20049;-82
2023/12/14 10:00:35;;;;;;;3.40;2.55;;;6.20;99.90;;;;;;5000699;28;20030;-82
2023/12/14 10:03:18;;;;;;;4.20;2.47;;;6.20;99.90;;;;;;5001665;28;20038;-82
2023/12/14 10:05:44;;;;;;;6.45;3.28;;;6.40;99.90;;;;;;5004860;28;20288;-81
2023/12/14 10:08:12;;;;;;;2.60;1.90;;;6.30;99.90;;;;;;5001419;28;20057;-81
2023/12/14 10:10:41;;;;;;;3.75;2.35;;;6.30;99.90;;;;;;4999245;28;20112;-82
2023/12/14 10:13:06;;;;;;;2.60;1.95;;;6.30;99.90;;;;;;5000354;28;20330;-82
2023/12/14 10:15:43;;;;;;;4.90;2.58;;;6.20;99.90;;;;;;5000051;28;20065;-80
2023/12/14 10:18:23;;;;;;;2.75;2.45;;;6.30;99.90;;;;;;4999742;28;20041;-81
2023/12/14 10:20:52;;;;;;;5.47;3.10;;;6.30;99.90;;;;;;5016630;28;20038;-90
2023/12/14 10:23:18;;;;;;;2.88;2.60;;;6.30;99.90;;;;;;5001900;28;20049;-82
2023/12/14 10:25:45;;;;;;;4.25;2.60;;;6.40;99.90;;;;;;4995066;28;20050;-80
2023/12/14 10:28:14;;;;;;;3.63;2.33;;;6.40;99.90;;;;;;4997976;28;20074;-80
2023/12/14 10:30:42;;;;;;;3.03;2.60;;;6.30;99.90;;;;;;5002154;28;20077;-81
2023/12/14 10:33:09;;;;;;;;;;;6.30;99.90;;;;;;4999489;28;20034;-82
2023/12/14 10:35:34;;;;;;;3.05;2.47;;;6.30;99.90;;;;;;5000345;28;20014;-83
2023/12/14 10:38:05;;;;;;;3.70;2.30;;;6.40;99.90;;;;;;5002997;28;20002;-83
2023/12/14 10:40:36;;;;;;;2.67;2.47;;;6.50;99.90;;;;;;5019477;28;20007;-82
2023/12/14 10:43:04;;;;;;;3.30;2.30;;;6.50;99.90;;;;;;5000518;28;20024;-83
2023/12/14 10:45:35;;;;;;;3.63;2.78;;;6.50;99.90;;;;;;5000468;28;20015;-84
2023/12/14 10:48:01;;;;;;;2.67;2.28;;;6.50;99.90;;;;;;4998980;28;20065;-81
2023/12/14 10:50:31;;;;;;;2.72;2.50;;;6.60;99.90;;;;;;4999069;28;20070;-82
2023/12/14 10:53:01;;;;;;;2.17;1.98;;;6.60;99.90;;;;;;4999758;28;20035;-83
2023/12/14 10:55:44;;;;;;;2.97;2.05;;;6.60;99.90;;;;;;5000500;28;20094;-74
2023/12/14 10:58:11;;;;;;;3.00;2.22;;;6.70;99.90;;;;;;4992441;28;20022;-74
2023/12/14 11:00:40;;;;;;;4.32;2.33;;;6.70;99.90;;;;;;4994893;28;20042;-77
2023/12/14 11:03:12;;;;;;;2.95;2.33;;;6.80;99.90;;;;;;4989995;28;20042;-76
2023/12/14 11:05:38;;;;;;;2.50;2.25;;;6.80;99.90;;;;;;5010173;28;20410;-82
2023/12/14 11:08:12;;;;;;;2.45;2.05;;;6.80;99.90;;;;;;5006949;28;20066;-83
2023/12/14 11:10:55;;;;;;;2.00;1.80;;;6.90;99.90;;;;;;5007479;28;20041;-81
2023/12/14 11:13:24;;;;;;;1.13;1.02;;;6.90;99.90;;;;;;5008138;28;20048;-82
2023/12/14 11:15:50;;;;;;;;;;;6.80;99.90;;;;;;5009773;28;20076;-83
2023/12/14 11:18:16;;;;;;;1.45;1.30;;;6.80;99.90;;;;;;5002114;28;19952;-81
2023/12/14 11:20:45;;;;;;;2.45;1.83;;;6.80;99.90;;;;;;5003681;28;20053;-81
2023/12/14 11:23:13;;;;;;;;;;;6.70;99.90;;;;;;5005484;28;20158;-81
2023/12/14 11:25:40;;;;;;;1.85;1.48;;;6.70;99.90;;;;;;5007257;28;19924;-81
2023/12/14 11:28:13;;;;;;;1.90;1.80;;;6.60;99.90;;;;;;4998789;28;20060;-81
2023/12/14 11:30:38;;;;;;;0.95;0.90;;;6.70;99.90;;;;;;5002663;28;20026;-80
2023/12/14 11:33:04;;;;;;;1.90;1.77;;;6.60;99.90;;;;;;5006656;28;20048;-79
2023/12/14 11:35:30;;;;;;;1.52;1.42;;;6.60;99.90;;;;;;4999843;28;20026;-81
2023/12/14 11:37:59;;;;;;;1.58;1.48;;;6.70;99.90;;;;;;4996657;28;20068;-80
2023/12/14 11:40:26;;;;;;;2.97;1.85;;;6.70;99.90;;;;;;5000147;28;20091;-81
2023/12/14 11:43:07;;;;;;;1.60;1.50;;;6.80;99.90;;;;;;5010388;28;20029;-81
2023/12/14 11:45:42;;;;;;;3.08;1.95;;;6.80;99.90;;;;;;4998819;28;20161;-80
2023/12/14 11:48:11;;;;;;;1.60;1.50;;;6.80;99.90;;;;;;4999272;28;20006;-81
2023/12/14 11:50:42;;;;;;;2.60;1.92;;;6.90;99.90;;;;;;5000448;28;20308;-82
2023/12/14 11:53:08;;;;;;;2.72;2.50;;;6.80;99.90;;;;;;4996690;28;20081;-84
2023/12/14 11:55:36;;;;;;;1.65;1.55;;;6.90;99.90;;;;;;4999807;28;20045;-82
2023/12/14 11:58:11;;;;;;;2.08;1.77;;;6.80;99.90;;;;;;5001147;28;20112;-83
2023/12/14 12:00:39;;;;;;;2.42;1.90;;;6.90;99.90;;;;;;4999019;28;20041;-84
2023/12/14 12:03:08;;;;;;;;;;;6.90;99.90;;;;;;5005151;28;20084;-82
2023/12/14 12:05:59;;;;;;;;;;;6.90;99.90;;;;;;5001160;28;19918;-76
2023/12/14 12:08:25;;;;;;;;;;;7.00;99.90;;;;;;4992224;28;19984;-75
2023/12/14 12:10:53;;;;;;;;;;;7.00;99.90;;;;;;4999482;28;20590;-75
2023/12/14 12:13:20;;;;;;;;;;;7.10;99.90;;;;;;4994661;28;20196;-74
2023/12/14 12:15:45;;;;;;;;;;;7.10;99.90;;;;;;4994280;28;19914;-82
2023/12/14 12:18:12;;;;;;;;;;;7.20;99.90;;;;;;4994318;28;19917;-83
2023/12/14 12:20:38;;;;;;;;;;;7.20;99.90;;;;;;4996137;28;19932;-82
2023/12/14 12:23:04;;;;;;;;;;;7.30;99.90;;;;;;4996753;28;19917;-81
2023/12/14 12:25:35;;;;;;;;;;;7.30;99.90;;;;;;5004885;28;19921;-82
2023/12/14 12:28:09;;;;;;;;;;;7.30;99.90;;;;;;5004881;28;19931;-82
2023/12/14 12:30:38;;;;;;;;;;;7.40;99.90;;;;;;4996316;28;19921;-82
2023/12/14 12:33:03;;;;;;;;;;;7.30;99.90;;;;;;4999548;28;19957;-80
2023/12/14 12:35:30;;;;;;;;;;;7.40;99.90;;;;;;4995444;28;19917;-84
2023/12/14 12:38:03;;;;;;;;;;;7.30;99.90;;;;;;4997649;28;19921;-81
2023/12/14 12:40:30;;;;;;;;;;;7.30;99.90;;;;;;4996828;28;19918;-83
2023/12/14 12:42:56;;;;;;;;;;;7.30;99.90;;;;;;5000101;28;19905;-81
2023/12/14 12:45:24;;;;;;;;;;;7.40;99.90;;;;;;4994826;28;21748;-81
2023/12/14 12:47:50;;;;;;;;;;;7.40;99.90;;;;;;4992829;28;19921;-82
2023/12/14 12:50:21;;;;;;;;;;;7.30;99.90;;;;;;4998603;28;20353;-87
2023/12/14 12:52:49;;;;;;;;;;;7.30;99.90;;;;;;5007163;28;19940;-85
2023/12/14 12:55:18;;;;;;;;;;;7.20;99.90;;;;;;4995367;28;19916;-81
2023/12/14 12:57:43;;;;;;;;;;;7.20;99.90;;;;;;5003303;28;19914;-80
2023/12/14 13:00:12;;;;;;;;;;;7.10;99.90;;;;;;5004245;28;19972;-81
2023/12/14 13:02:39;;;;;;;;;;;7.10;99.90;;;;;;5006169;28;19920;-81
2023/12/14 13:05:05;;;;;;;;;;;7.10;99.90;;;;;;4994604;28;19920;-80
2023/12/14 13:07:31;;;;;;;;;;;7.10;99.90;;;;;;5003099;28;19922;-80
2023/12/14 13:09:56;;;;;;;;;;;7.10;99.90;;;;;;5001621;28;20042;-81
2023/12/14 13:12:23;;;;;;;;;;;7.10;99.90;;;;;;5004556;28;20016;-81
2023/12/14 13:14:48;;;;;;;;;;;7.10;99.90;;;;;;5001064;28;20366;-80
2023/12/14 13:17:16;;;;;;;;;;;7.10;99.90;;;;;;5001730;28;19924;-83
2023/12/14 13:19:42;;;;;;;;;;;7.20;99.90;;;;;;5002788;28;19917;-82